Time;durP1;ratioP1;P1;durP2;ratioP2;P2;SDS_P1;SDS_P2;PMS_P1;PMS_P2;Temp;Humidity;BMP_temperature;BMP_pressure;BME280_temperature;BME280_humidity;BME280_pressure;Samples;Min_cycle;Max_cycle;Signal;HPM_P1;HPM_P2
2023/08/31 08:41:19;;;;;;;3.42;0.70;;;;;;;;;;6233046;22;20024;-88
2023/08/31 08:43:47;;;;;;;0.75;0.40;;;;;;;;;;6237303;23;20031;-86
2023/08/31 08:46:16;;;;;;;1.85;0.40;;;;;;;;;;6236128;23;20031;-84
2023/08/31 08:48:43;;;;;;;1.90;0.52;;;;;;;;;;6239684;23;20070;-84
2023/08/31 08:51:10;;;;;;;1.83;0.50;;;;;;;;;;6239559;23;20024;-87
2023/08/31 08:53:38;;;;;;;4.65;0.57;;;;;;;;;;6243332;23;20047;-84
2023/08/31 08:56:04;;;;;;;0.50;0.40;;;;;;;;;;6238699;23;20059;-80
2023/08/31 08:58:30;;;;;;;0.95;0.35;;;;;;;;;;6246847;22;20031;-82
2023/08/31 09:00:56;;;;;;;1.88;0.32;;;;;;;;;;6237496;23;20085;-86
2023/08/31 09:03:24;;;;;;;0.68;0.25;;;;;;;;;;6239887;23;20042;-87
2023/08/31 09:05:51;;;;;;;0.22;0.10;;;;;;;;;;6238844;22;20352;-88
2023/08/31 09:08:17;;;;;;;1.20;0.40;;;;;;;;;;6237582;23;20101;-87
2023/08/31 09:10:44;;;;;;;1.95;0.30;;;;;;;;;;6236166;23;20024;-87
2023/08/31 09:13:11;;;;;;;3.13;0.60;;;;;;;;;;6235255;23;20020;-87
2023/08/31 09:15:39;;;;;;;0.20;0.20;;;;;;;;;;6237580;23;20027;-86
2023/08/31 09:18:05;;;;;;;0.20;0.20;;;;;;;;;;6235416;23;20020;-86
2023/08/31 09:20:31;;;;;;;1.27;0.40;;;;;;;;;;6236594;23;20008;-84
2023/08/31 09:22:57;;;;;;;2.15;0.22;;;;;;;;;;6236830;23;20016;-85
2023/08/31 09:25:23;;;;;;;1.25;0.50;;;;;;;;;;6234196;23;20020;-82
2023/08/31 09:27:49;;;;;;;1.13;0.30;;;;;;;;;;6236528;23;20138;-82
2023/08/31 09:30:15;;;;;;;0.93;0.40;;;;;;;;;;6236834;23;20386;-82
2023/08/31 09:32:43;;;;;;;0.70;0.30;;;;;;;;;;6237832;23;20012;-82
2023/08/31 09:35:10;;;;;;;1.30;0.60;;;;;;;;;;6237131;23;20095;-83
2023/08/31 09:37:36;;;;;;;1.65;0.43;;;;;;;;;;6235143;23;20016;-81
2023/08/31 09:40:05;;;;;;;2.95;0.73;;;;;;;;;;6235193;23;20024;-81
2023/08/31 09:42:40;;;;;;;0.82;0.50;;;;;;;;;;6231437;23;20384;-82
2023/08/31 09:45:07;;;;;;;1.58;0.93;;;;;;;;;;6235205;23;20012;-82
2023/08/31 09:47:33;;;;;;;0.43;0.40;;;;;;;;;;6235818;23;20016;-84
2023/08/31 09:50:00;;;;;;;1.40;0.43;;;;;;;;;;6236543;23;20383;-84
2023/08/31 09:52:26;;;;;;;3.85;0.80;;;;;;;;;;6234774;23;20012;-83
2023/08/31 09:54:53;;;;;;;0.57;0.40;;;;;;;;;;6236287;23;20552;-84
2023/08/31 09:57:20;;;;;;;1.92;0.50;;;;;;;;;;6237849;23;20035;-85
2023/08/31 09:59:47;;;;;;;1.38;0.30;;;;;;;;;;6235676;23;20043;-84
2023/08/31 10:02:14;;;;;;;0.88;0.40;;;;;;;;;;6236241;23;20016;-87
2023/08/31 10:04:40;;;;;;;0.60;0.30;;;;;;;;;;6236912;23;20441;-92
2023/08/31 10:07:07;;;;;;;1.10;0.47;;;;;;;;;;6238115;23;20058;-89
2023/08/31 10:09:33;;;;;;;0.60;0.50;;;;;;;;;;6239695;23;20020;-93
2023/08/31 10:11:59;;;;;;;1.65;0.60;;;;;;;;;;6236995;23;20023;-89
2023/08/31 10:14:26;;;;;;;0.95;0.40;;;;;;;;;;6239758;23;20736;-90
2023/08/31 10:16:52;;;;;;;0.95;0.43;;;;;;;;;;6237881;23;20020;-86
2023/08/31 10:19:18;;;;;;;0.93;0.30;;;;;;;;;;6238363;23;20034;-91
2023/08/31 10:21:44;;;;;;;0.22;0.22;;;;;;;;;;6239623;23;20020;-91
2023/08/31 10:24:10;;;;;;;0.47;0.30;;;;;;;;;;6237663;23;20316;-87
2023/08/31 10:26:37;;;;;;;0.80;0.40;;;;;;;;;;6240286;23;20034;-86
2023/08/31 10:29:04;;;;;;;1.52;0.45;;;;;;;;;;6236688;23;20023;-90
2023/08/31 10:31:30;;;;;;;1.15;0.40;;;;;;;;;;6242316;23;20015;-92
2023/08/31 10:33:58;;;;;;;1.40;0.47;;;;;;;;;;6241841;23;20348;-94
2023/08/31 10:36:35;;;;;;;0.30;0.22;;;;;;;;;;6242224;23;20055;-91
2023/08/31 10:39:05;;;;;;;2.08;0.47;;;;;;;;;;6240826;23;20086;-94
2023/08/31 10:41:34;;;;;;;1.67;0.40;;;;;;;;;;6243226;23;20027;-93
2023/08/31 10:44:01;;;;;;;1.10;0.38;;;;;;;;;;6243869;23;20009;-94
2023/08/31 10:46:28;;;;;;;0.95;0.32;;;;;;;;;;6242531;23;20081;-89
2023/08/31 10:49:02;;;;;;;1.35;0.50;;;;;;;;;;6240721;23;20027;-88
2023/08/31 10:51:30;;;;;;;0.98;0.38;;;;;;;;;;6238803;23;20344;-89
2023/08/31 10:54:15;;;;;;;1.30;0.47;;;;;;;;;;6238913;23;20035;-91
2023/08/31 10:56:54;;;;;;;2.42;0.50;;;;;;;;;;6242222;23;20014;-90
2023/08/31 10:59:22;;;;;;;1.85;0.30;;;;;;;;;;6241317;22;20071;-90
2023/08/31 11:01:53;;;;;;;1.30;0.22;;;;;;;;;;6244535;23;20022;-92
2023/08/31 11:04:18;;;;;;;;;;;;;;;;;;6243740;23;20067;-92
2023/08/31 11:06:44;;;;;;;1.45;0.50;;;;;;;;;;6244488;22;19911;-90
2023/08/31 11:09:20;;;;;;;0.90;0.40;;;;;;;;;;6242709;23;20420;-93
2023/08/31 11:11:47;;;;;;;1.00;0.35;;;;;;;;;;6244036;23;20083;-92
2023/08/31 11:14:13;;;;;;;0.85;0.30;;;;;;;;;;6241241;23;20430;-92
2023/08/31 11:16:40;;;;;;;0.52;0.30;;;;;;;;;;6243512;23;20040;-91
2023/08/31 11:19:06;;;;;;;1.38;0.40;;;;;;;;;;6242875;23;20090;-92
2023/08/31 11:21:32;;;;;;;0.73;0.20;;;;;;;;;;6243169;23;20328;-94
2023/08/31 11:23:59;;;;;;;2.13;0.82;;;;;;;;;;6243637;23;20066;-93
2023/08/31 11:26:26;;;;;;;4.38;0.45;;;;;;;;;;6243264;23;20432;-93
2023/08/31 11:28:52;;;;;;;0.90;0.40;;;;;;;;;;6241812;23;20106;-93
2023/08/31 11:31:25;;;;;;;2.85;0.40;;;;;;;;;;6244850;23;20020;-91
2023/08/31 11:33:51;;;;;;;1.58;0.45;;;;;;;;;;6242814;23;20016;-92
2023/08/31 11:36:17;;;;;;;4.18;0.75;;;;;;;;;;6243914;23;20111;-89
2023/08/31 11:38:49;;;;;;;0.65;0.30;;;;;;;;;;6242113;23;20341;-93
2023/08/31 11:41:15;;;;;;;2.83;0.30;;;;;;;;;;6242965;23;20051;-92
2023/08/31 11:43:41;;;;;;;2.15;0.35;;;;;;;;;;6242047;23;20341;-96
2023/08/31 11:46:07;;;;;;;1.63;0.40;;;;;;;;;;6243770;23;20043;-89
2023/08/31 11:48:34;;;;;;;2.05;0.60;;;;;;;;;;6242458;23;20360;-93
2023/08/31 11:51:00;;;;;;;2.92;0.35;;;;;;;;;;6240028;23;20341;-93
2023/08/31 11:53:27;;;;;;;1.02;0.30;;;;;;;;;;6242606;23;20091;-91
2023/08/31 11:55:53;;;;;;;2.38;0.40;;;;;;;;;;6241599;23;20016;-93
2023/08/31 11:58:24;;;;;;;1.88;0.30;;;;;;;;;;6243411;23;20069;-93
2023/08/31 12:00:59;;;;;;;1.05;0.40;;;;;;;;;;6242678;23;20016;-91
2023/08/31 12:03:26;;;;;;;0.65;0.35;;;;;;;;;;6242191;23;20012;-91
2023/08/31 12:05:58;;;;;;;1.00;0.30;;;;;;;;;;6240424;23;20027;-94
2023/08/31 12:08:28;;;;;;;2.85;0.60;;;;;;;;;;6241755;23;20023;-91
2023/08/31 12:10:55;;;;;;;1.30;0.20;;;;;;;;;;6243211;23;20107;-92
2023/08/31 12:13:26;;;;;;;1.02;0.50;;;;;;;;;;6241148;23;20554;-93
2023/08/31 12:15:53;;;;;;;1.85;0.30;;;;;;;;;;6241065;23;20449;-93
2023/08/31 12:18:19;;;;;;;0.90;0.30;;;;;;;;;;6239621;23;20024;-89
2023/08/31 12:20:51;;;;;;;0.32;0.30;;;;;;;;;;6241009;23;20023;-88
2023/08/31 12:23:17;;;;;;;1.23;0.30;;;;;;;;;;6240415;23;20087;-90
2023/08/31 12:25:47;;;;;;;1.48;0.40;;;;;;;;;;6239976;23;20196;-90
2023/08/31 12:28:13;;;;;;;3.58;0.40;;;;;;;;;;6254190;23;20003;-91
2023/08/31 12:30:43;;;;;;;0.52;0.30;;;;;;;;;;6266576;23;20024;-91
2023/08/31 12:33:10;;;;;;;0.95;0.45;;;;;;;;;;6264231;23;20039;-90
2023/08/31 12:35:36;;;;;;;1.55;0.25;;;;;;;;;;6263553;23;20080;-92
2023/08/31 12:38:05;;;;;;;0.68;0.35;;;;;;;;;;6248653;23;20019;-90
2023/08/31 12:40:31;;;;;;;4.30;0.85;;;;;;;;;;6245721;23;20130;-91
2023/08/31 12:42:57;;;;;;;1.10;0.45;;;;;;;;;;6241166;23;20027;-91
2023/08/31 12:45:23;;;;;;;1.38;0.38;;;;;;;;;;6239838;23;20012;-86
2023/08/31 12:47:49;;;;;;;0.70;0.50;;;;;;;;;;6238629;23;20019;-88
2023/08/31 12:50:15;;;;;;;1.15;0.50;;;;;;;;;;6240295;23;20015;-85
2023/08/31 12:52:44;;;;;;;2.65;0.68;;;;;;;;;;6240910;23;20012;-87
2023/08/31 12:55:10;;;;;;;1.65;0.20;;;;;;;;;;6239732;23;20027;-88
2023/08/31 12:57:36;;;;;;;1.38;0.40;;;;;;;;;;6241078;23;20008;-89
2023/08/31 13:00:08;;;;;;;0.90;0.50;;;;;;;;;;6239724;23;20020;-89
2023/08/31 13:02:34;;;;;;;1.33;0.50;;;;;;;;;;6238795;23;20023;-87
2023/08/31 13:05:00;;;;;;;1.10;0.55;;;;;;;;;;6240072;23;20016;-88
2023/08/31 13:07:26;;;;;;;1.10;0.52;;;;;;;;;;6240188;23;20019;-93
2023/08/31 13:09:52;;;;;;;2.90;0.50;;;;;;;;;;6240775;23;20020;-87
2023/08/31 13:12:19;;;;;;;2.13;0.57;;;;;;;;;;6240584;23;20023;-91
2023/08/31 13:14:45;;;;;;;0.60;0.55;;;;;;;;;;6241139;23;20039;-83
2023/08/31 13:17:11;;;;;;;2.78;0.40;;;;;;;;;;6238716;23;20020;-89
2023/08/31 13:19:37;;;;;;;2.15;0.63;;;;;;;;;;6240887;23;20333;-87
2023/08/31 13:22:03;;;;;;;1.73;0.55;;;;;;;;;;6239456;23;20020;-85
2023/08/31 13:24:29;;;;;;;1.50;0.68;;;;;;;;;;6241945;23;20016;-86
2023/08/31 13:26:55;;;;;;;0.55;0.40;;;;;;;;;;6244948;23;20020;-86
2023/08/31 13:29:21;;;;;;;2.15;0.57;;;;;;;;;;6242441;23;20016;-91
2023/08/31 13:31:47;;;;;;;2.90;0.75;;;;;;;;;;6257692;23;20060;-90
2023/08/31 13:34:15;;;;;;;5.13;0.90;;;;;;;;;;6263312;23;20051;-90
2023/08/31 13:36:41;;;;;;;2.78;0.70;;;;;;;;;;6266404;23;20346;-90
2023/08/31 13:39:07;;;;;;;1.27;0.50;;;;;;;;;;6248747;23;20016;-90
2023/08/31 13:41:33;;;;;;;0.90;0.63;;;;;;;;;;6251943;23;20024;-92
2023/08/31 13:43:59;;;;;;;2.33;0.50;;;;;;;;;;6240660;23;20016;-90
2023/08/31 13:46:25;;;;;;;2.85;0.50;;;;;;;;;;6240472;23;20016;-91
2023/08/31 13:48:51;;;;;;;1.40;0.40;;;;;;;;;;6240756;23;20023;-90
2023/08/31 13:51:17;;;;;;;0.32;0.25;;;;;;;;;;6242056;23;20016;-92
2023/08/31 13:53:43;;;;;;;0.60;0.40;;;;;;;;;;6241616;23;20090;-91
2023/08/31 13:56:09;;;;;;;1.13;0.40;;;;;;;;;;6241198;23;20047;-92
2023/08/31 13:58:35;;;;;;;1.17;0.43;;;;;;;;;;6243538;23;20016;-92
2023/08/31 14:01:03;;;;;;;1.83;0.50;;;;;;;;;;6246128;23;20392;-93
2023/08/31 14:03:29;;;;;;;1.58;0.60;;;;;;;;;;6243148;23;20016;-92
2023/08/31 14:05:55;;;;;;;2.10;0.50;;;;;;;;;;6244227;23;20027;-94
2023/08/31 14:08:21;;;;;;;1.40;0.40;;;;;;;;;;6242350;23;20429;-94
2023/08/31 14:10:47;;;;;;;0.93;0.50;;;;;;;;;;6244306;23;20062;-93
2023/08/31 14:13:13;;;;;;;2.33;0.52;;;;;;;;;;6242252;23;20031;-94
2023/08/31 14:15:46;;;;;;;1.58;0.55;;;;;;;;;;6242661;23;20020;-90
2023/08/31 14:18:12;;;;;;;0.80;0.40;;;;;;;;;;6239629;23;20446;-89
2023/08/31 14:20:38;;;;;;;0.85;0.30;;;;;;;;;;6242565;23;20016;-93
2023/08/31 14:23:04;;;;;;;1.80;0.45;;;;;;;;;;6239544;23;20091;-90
2023/08/31 14:25:34;;;;;;;1.70;0.40;;;;;;;;;;6240417;23;20125;-92
2023/08/31 14:28:00;;;;;;;2.47;0.60;;;;;;;;;;6240854;23;20012;-91
2023/08/31 14:30:26;;;;;;;2.15;0.68;;;;;;;;;;6242308;23;20016;-88
2023/08/31 14:32:52;;;;;;;3.17;0.80;;;;;;;;;;6238827;23;20013;-90
2023/08/31 14:35:18;;;;;;;1.38;0.60;;;;;;;;;;6238308;23;20020;-92
2023/08/31 14:37:44;;;;;;;2.38;0.60;;;;;;;;;;6242457;23;20016;-92
2023/08/31 14:40:10;;;;;;;1.20;0.55;;;;;;;;;;6215834;23;20121;-88
2023/08/31 14:42:37;;;;;;;1.90;0.40;;;;;;;;;;6240805;23;20322;-92
2023/08/31 14:45:03;;;;;;;3.10;0.75;;;;;;;;;;6241118;23;20020;-91
2023/08/31 14:47:29;;;;;;;1.38;0.50;;;;;;;;;;6215280;23;20027;-90
2023/08/31 14:49:55;;;;;;;1.35;0.32;;;;;;;;;;6241662;23;20122;-91
2023/08/31 14:52:22;;;;;;;2.55;0.52;;;;;;;;;;6242326;23;20074;-89
2023/08/31 14:54:48;;;;;;;2.58;0.68;;;;;;;;;;6216334;23;20023;-93
2023/08/31 14:57:14;;;;;;;1.85;0.40;;;;;;;;;;6242603;23;20442;-89
2023/08/31 14:59:41;;;;;;;5.07;0.68;;;;;;;;;;6241611;23;20117;-90
2023/08/31 15:02:08;;;;;;;3.85;0.43;;;;;;;;;;6239034;23;20016;-86
2023/08/31 15:04:34;;;;;;;1.50;0.50;;;;;;;;;;6239425;23;20098;-85
2023/08/31 15:07:00;;;;;;;1.92;0.73;;;;;;;;;;6238933;23;20023;-84
2023/08/31 15:09:26;;;;;;;3.67;0.55;;;;;;;;;;6239202;23;20123;-84
2023/08/31 15:11:52;;;;;;;1.98;0.32;;;;;;;;;;6236884;23;20047;-84
2023/08/31 15:14:18;;;;;;;1.85;0.52;;;;;;;;;;6239008;23;20008;-86
2023/08/31 15:16:44;;;;;;;2.92;0.60;;;;;;;;;;6235892;23;20014;-86
2023/08/31 15:19:10;;;;;;;1.25;0.50;;;;;;;;;;6238083;23;20023;-84
2023/08/31 15:21:38;;;;;;;2.35;0.57;;;;;;;;;;6237832;23;20020;-84
2023/08/31 15:24:04;;;;;;;1.45;0.38;;;;;;;;;;6237535;23;20093;-85
2023/08/31 15:26:30;;;;;;;1.50;0.50;;;;;;;;;;6238468;23;20012;-86
2023/08/31 15:28:56;;;;;;;3.17;0.70;;;;;;;;;;6239495;23;20012;-90
2023/08/31 15:31:22;;;;;;;1.77;0.93;;;;;;;;;;6239109;23;20042;-90
2023/08/31 15:33:49;;;;;;;2.72;0.68;;;;;;;;;;6244115;23;20071;-91
2023/08/31 15:36:15;;;;;;;1.70;0.68;;;;;;;;;;6244805;23;20397;-92
2023/08/31 15:38:41;;;;;;;0.50;0.30;;;;;;;;;;6243996;23;20024;-87
2023/08/31 15:41:07;;;;;;;2.25;0.50;;;;;;;;;;6240409;23;20087;-90
2023/08/31 15:43:35;;;;;;;1.63;0.75;;;;;;;;;;6240995;23;20038;-85
2023/08/31 15:46:02;;;;;;;1.40;0.63;;;;;;;;;;6243111;23;20012;-87
2023/08/31 15:48:28;;;;;;;1.67;0.70;;;;;;;;;;6242944;23;20012;-89
2023/08/31 15:50:57;;;;;;;4.68;0.80;;;;;;;;;;6243960;23;20058;-92
2023/08/31 15:53:23;;;;;;;1.75;0.52;;;;;;;;;;6242327;23;20020;-88
2023/08/31 15:55:50;;;;;;;2.45;0.55;;;;;;;;;;6246724;23;20047;-91
2023/08/31 15:58:16;;;;;;;2.40;0.55;;;;;;;;;;6245182;23;20008;-89
2023/08/31 16:00:43;;;;;;;2.55;1.00;;;;;;;;;;6241858;23;20406;-88
2023/08/31 16:03:10;;;;;;;1.10;0.50;;;;;;;;;;6241800;23;20506;-87
2023/08/31 16:05:36;;;;;;;0.60;0.40;;;;;;;;;;6241828;23;20310;-87
2023/08/31 16:08:03;;;;;;;0.57;0.38;;;;;;;;;;6243723;23;20012;-89
2023/08/31 16:10:29;;;;;;;1.38;0.50;;;;;;;;;;6246249;23;20020;-91
2023/08/31 16:12:56;;;;;;;2.55;0.85;;;;;;;;;;6241625;23;20042;-87
2023/08/31 16:15:25;;;;;;;1.05;0.40;;;;;;;;;;6240512;23;20008;-93
2023/08/31 16:17:51;;;;;;;1.42;0.68;;;;;;;;;;6244366;23;20016;-86
2023/08/31 16:20:18;;;;;;;2.00;0.60;;;;;;;;;;6247585;23;20114;-87
2023/08/31 16:22:45;;;;;;;0.52;0.30;;;;;;;;;;6243833;23;20019;-87
2023/08/31 16:25:11;;;;;;;1.67;0.70;;;;;;;;;;6242576;23;20441;-88
2023/08/31 16:27:37;;;;;;;3.78;0.60;;;;;;;;;;6246037;23;20016;-89
2023/08/31 16:30:04;;;;;;;1.77;0.47;;;;;;;;;;6247133;23;20024;-90
2023/08/31 16:32:30;;;;;;;1.77;0.57;;;;;;;;;;6246703;23;20062;-90
2023/08/31 16:34:56;;;;;;;2.13;0.70;;;;;;;;;;6243445;23;20318;-88
2023/08/31 16:37:22;;;;;;;3.22;0.65;;;;;;;;;;6240930;23;20369;-86
2023/08/31 16:39:51;;;;;;;1.95;0.43;;;;;;;;;;6241641;23;20341;-83
2023/08/31 16:42:17;;;;;;;0.75;0.40;;;;;;;;;;6241979;23;20008;-84
2023/08/31 16:44:43;;;;;;;0.85;0.50;;;;;;;;;;6243004;23;20130;-85
2023/08/31 16:47:12;;;;;;;1.17;0.50;;;;;;;;;;6241421;23;20024;-86
2023/08/31 16:49:40;;;;;;;1.27;0.43;;;;;;;;;;6239120;23;20023;-84
2023/08/31 16:52:07;;;;;;;1.20;0.40;;;;;;;;;;6239791;23;20012;-87
2023/08/31 16:54:33;;;;;;;1.55;0.40;;;;;;;;;;6242707;23;20083;-85
2023/08/31 16:56:59;;;;;;;3.83;0.60;;;;;;;;;;6243026;23;20045;-85
2023/08/31 16:59:25;;;;;;;1.52;0.60;;;;;;;;;;6243036;23;20400;-86
2023/08/31 17:01:51;;;;;;;1.48;0.43;;;;;;;;;;6240015;23;20016;-87
2023/08/31 17:04:17;;;;;;;3.78;0.75;;;;;;;;;;6239927;23;20016;-86
2023/08/31 17:06:43;;;;;;;1.95;0.50;;;;;;;;;;6240901;23;20012;-87
2023/08/31 17:09:09;;;;;;;1.55;0.43;;;;;;;;;;6239465;23;20012;-89
2023/08/31 17:11:36;;;;;;;0.32;0.32;;;;;;;;;;6242685;23;20062;-85
2023/08/31 17:14:06;;;;;;;2.03;0.40;;;;;;;;;;6241204;23;20020;-90
2023/08/31 17:16:32;;;;;;;1.83;0.63;;;;;;;;;;6240656;23;20019;-87
2023/08/31 17:18:58;;;;;;;0.93;0.40;;;;;;;;;;6240755;23;20008;-87
2023/08/31 17:21:24;;;;;;;1.73;0.43;;;;;;;;;;6239842;23;20016;-88
2023/08/31 17:23:50;;;;;;;1.65;0.50;;;;;;;;;;6243470;23;20015;-88
2023/08/31 17:26:23;;;;;;;1.92;0.52;;;;;;;;;;6241973;23;20098;-89
2023/08/31 17:28:49;;;;;;;0.98;0.65;;;;;;;;;;6239739;23;20012;-88
2023/08/31 17:31:16;;;;;;;1.40;0.55;;;;;;;;;;6242469;23;20016;-86
2023/08/31 17:33:42;;;;;;;0.50;0.40;;;;;;;;;;6240400;23;20020;-87
2023/08/31 17:36:08;;;;;;;3.17;0.60;;;;;;;;;;6240773;23;20093;-88
2023/08/31 17:38:36;;;;;;;0.95;0.38;;;;;;;;;;6242390;23;20016;-87
2023/08/31 17:41:03;;;;;;;3.53;0.70;;;;;;;;;;6241262;23;20028;-89
2023/08/31 17:43:29;;;;;;;3.17;0.68;;;;;;;;;;6242502;23;20020;-88
2023/08/31 17:45:55;;;;;;;3.03;0.50;;;;;;;;;;6241626;23;20015;-88
2023/08/31 17:48:21;;;;;;;1.85;0.50;;;;;;;;;;6241808;23;20012;-88
2023/08/31 17:50:47;;;;;;;2.08;0.63;;;;;;;;;;6239888;23;20348;-91
2023/08/31 17:53:13;;;;;;;1.38;0.50;;;;;;;;;;6240014;23;20054;-90
2023/08/31 17:55:39;;;;;;;1.13;0.60;;;;;;;;;;6241965;23;20035;-89
2023/08/31 17:58:05;;;;;;;1.98;0.40;;;;;;;;;;6239413;23;20019;-86
2023/08/31 18:00:31;;;;;;;0.50;0.40;;;;;;;;;;6240102;23;20095;-88
2023/08/31 18:02:59;;;;;;;1.88;0.60;;;;;;;;;;6242763;23;20012;-88
2023/08/31 18:05:25;;;;;;;0.88;0.50;;;;;;;;;;6241776;23;20019;-88
2023/08/31 18:07:51;;;;;;;1.15;0.50;;;;;;;;;;6243070;23;20016;-87
2023/08/31 18:10:20;;;;;;;2.08;0.60;;;;;;;;;;6246496;23;20004;-88
2023/08/31 18:12:47;;;;;;;1.20;0.43;;;;;;;;;;6247543;23;20023;-88
2023/08/31 18:15:13;;;;;;;1.58;0.50;;;;;;;;;;6248455;23;20364;-88
2023/08/31 18:17:39;;;;;;;1.95;0.63;;;;;;;;;;6253050;23;20095;-89
2023/08/31 18:20:05;;;;;;;0.65;0.40;;;;;;;;;;6251571;23;20020;-89
2023/08/31 18:22:31;;;;;;;2.35;1.05;;;;;;;;;;6249378;23;20016;-89
2023/08/31 18:24:57;;;;;;;0.85;0.40;;;;;;;;;;6243001;23;20008;-91
2023/08/31 18:27:23;;;;;;;0.88;0.32;;;;;;;;;;6241145;23;20016;-89
2023/08/31 18:29:49;;;;;;;1.92;0.55;;;;;;;;;;6240503;23;20020;-90
2023/08/31 18:32:15;;;;;;;2.63;1.80;;;;;;;;;;6242145;23;20020;-90
2023/08/31 18:34:48;;;;;;;3.28;0.68;;;;;;;;;;6242851;23;20070;-91
2023/08/31 18:37:14;;;;;;;1.42;0.50;;;;;;;;;;6242102;23;20020;-91
2023/08/31 18:39:41;;;;;;;1.13;0.47;;;;;;;;;;6242889;23;20020;-91
2023/08/31 18:42:09;;;;;;;2.55;0.75;;;;;;;;;;6243257;23;20122;-91
2023/08/31 18:44:35;;;;;;;0.75;0.70;;;;;;;;;;6243779;23;20023;-92
2023/08/31 18:47:02;;;;;;;1.90;0.85;;;;;;;;;;6242976;23;20016;-90
2023/08/31 18:49:28;;;;;;;4.70;0.82;;;;;;;;;;6243713;23;20472;-91
2023/08/31 18:51:54;;;;;;;1.95;0.50;;;;;;;;;;6245139;23;20039;-90
2023/08/31 18:54:21;;;;;;;2.67;0.70;;;;;;;;;;6243014;23;20087;-91
2023/08/31 18:56:47;;;;;;;2.28;1.00;;;;;;;;;;6246366;23;20048;-90
2023/08/31 18:59:13;;;;;;;1.38;0.80;;;;;;;;;;6241908;23;20020;-91
2023/08/31 19:01:39;;;;;;;2.70;1.00;;;;;;;;;;6243651;23;20345;-91
2023/08/31 19:04:05;;;;;;;3.28;1.33;;;;;;;;;;6244772;23;20012;-91
2023/08/31 19:06:35;;;;;;;2.92;1.30;;;;;;;;;;6245163;23;20376;-91
2023/08/31 19:09:01;;;;;;;3.97;1.98;;;;;;;;;;6250615;23;20122;-91
2023/08/31 19:11:27;;;;;;;4.32;2.60;;;;;;;;;;6241450;23;20068;-91
2023/08/31 19:13:53;;;;;;;4.85;2.50;;;;;;;;;;6266445;23;20039;-91
2023/08/31 19:16:19;;;;;;;3.03;1.50;;;;;;;;;;6260873;23;20062;-91
2023/08/31 19:18:45;;;;;;;2.58;1.40;;;;;;;;;;6264773;23;20005;-91
2023/08/31 19:21:12;;;;;;;2.85;1.27;;;;;;;;;;6256393;23;20022;-91
2023/08/31 19:23:40;;;;;;;2.05;0.90;;;;;;;;;;6246506;23;20012;-92
2023/08/31 19:26:09;;;;;;;1.13;0.90;;;;;;;;;;6245686;23;20087;-91
2023/08/31 19:28:35;;;;;;;2.10;0.82;;;;;;;;;;6243599;23;20102;-92
2023/08/31 19:31:01;;;;;;;1.50;0.75;;;;;;;;;;6242150;23;20091;-92
2023/08/31 19:33:27;;;;;;;3.90;1.30;;;;;;;;;;6244822;23;20016;-92
2023/08/31 19:35:54;;;;;;;3.28;1.83;;;;;;;;;;6242433;23;20019;-93
2023/08/31 19:38:20;;;;;;;3.17;1.83;;;;;;;;;;6244597;23;20016;-92
2023/08/31 19:40:46;;;;;;;2.25;1.38;;;;;;;;;;6244176;23;20072;-92
2023/08/31 19:43:15;;;;;;;2.55;2.22;;;;;;;;;;6243289;23;20341;-93
2023/08/31 19:45:42;;;;;;;2.42;1.58;;;;;;;;;;6245064;23;20012;-93
2023/08/31 19:48:08;;;;;;;1.38;0.80;;;;;;;;;;6246860;23;20043;-92
2023/08/31 19:50:36;;;;;;;1.42;1.10;;;;;;;;;;6248048;23;20192;-94
2023/08/31 19:53:02;;;;;;;1.45;0.65;;;;;;;;;;6246012;23;20016;-93
2023/08/31 19:55:28;;;;;;;3.78;0.90;;;;;;;;;;6249595;23;20024;-93
2023/08/31 19:57:54;;;;;;;1.65;0.68;;;;;;;;;;6245691;23;20070;-92
2023/08/31 20:00:22;;;;;;;0.63;0.50;;;;;;;;;;6243386;23;20020;-93
2023/08/31 20:02:49;;;;;;;1.30;0.70;;;;;;;;;;6245399;23;20329;-94
2023/08/31 20:05:23;;;;;;;1.75;0.70;;;;;;;;;;6240642;23;20043;-88
2023/08/31 20:07:49;;;;;;;2.03;0.70;;;;;;;;;;6243441;23;20364;-88
2023/08/31 20:10:16;;;;;;;1.92;0.55;;;;;;;;;;6242885;23;20067;-92
2023/08/31 20:12:42;;;;;;;1.58;0.60;;;;;;;;;;6241783;23;20013;-90
2023/08/31 20:15:08;;;;;;;1.08;0.60;;;;;;;;;;6241446;23;20012;-90
2023/08/31 20:17:35;;;;;;;1.20;0.93;;;;;;;;;;6241325;23;20012;-90
2023/08/31 20:20:04;;;;;;;1.33;0.80;;;;;;;;;;6243902;23;20043;-91
2023/08/31 20:22:30;;;;;;;0.70;0.70;;;;;;;;;;6243466;23;20012;-91
2023/08/31 20:24:56;;;;;;;1.75;0.93;;;;;;;;;;6242846;23;20012;-91
2023/08/31 20:27:22;;;;;;;3.08;1.00;;;;;;;;;;6241078;23;20212;-90
2023/08/31 20:29:48;;;;;;;1.77;0.98;;;;;;;;;;6243178;23;20016;-90
2023/08/31 20:32:14;;;;;;;2.15;1.02;;;;;;;;;;6243135;23;20020;-90
2023/08/31 20:34:40;;;;;;;2.70;1.00;;;;;;;;;;6243025;23;20067;-90
2023/08/31 20:37:06;;;;;;;3.25;1.17;;;;;;;;;;6242748;23;20016;-90
2023/08/31 20:39:38;;;;;;;1.77;0.88;;;;;;;;;;6242283;23;20500;-90
2023/08/31 20:42:06;;;;;;;1.35;0.90;;;;;;;;;;6242399;23;20433;-90
2023/08/31 20:44:32;;;;;;;2.25;0.90;;;;;;;;;;6242779;23;20012;-90
2023/08/31 20:46:58;;;;;;;2.15;0.80;;;;;;;;;;6243482;23;20016;-90
2023/08/31 20:49:25;;;;;;;1.35;0.90;;;;;;;;;;6242965;23;20027;-90
2023/08/31 20:51:51;;;;;;;1.67;0.73;;;;;;;;;;6242811;23;20460;-90
2023/08/31 20:54:17;;;;;;;1.23;0.80;;;;;;;;;;6240124;23;20111;-91
2023/08/31 20:56:43;;;;;;;2.60;0.75;;;;;;;;;;6243617;23;20059;-90
2023/08/31 20:59:11;;;;;;;2.45;0.75;;;;;;;;;;6240947;23;20093;-90
2023/08/31 21:01:37;;;;;;;2.00;0.70;;;;;;;;;;6243818;23;20019;-90
2023/08/31 21:04:03;;;;;;;1.08;0.60;;;;;;;;;;6242675;23;20020;-91
2023/08/31 21:06:29;;;;;;;1.17;0.98;;;;;;;;;;6240758;23;20026;-91
2023/08/31 21:08:55;;;;;;;1.63;0.70;;;;;;;;;;6239588;23;20404;-90
2023/08/31 21:11:24;;;;;;;1.20;0.75;;;;;;;;;;6242735;23;20020;-92
2023/08/31 21:13:50;;;;;;;2.45;0.60;;;;;;;;;;6242976;23;20143;-90
2023/08/31 21:16:16;;;;;;;0.80;0.55;;;;;;;;;;6242650;23;20012;-91
2023/08/31 21:18:42;;;;;;;1.00;0.63;;;;;;;;;;6243516;23;20011;-90
2023/08/31 21:21:09;;;;;;;1.17;0.80;;;;;;;;;;6241194;23;20460;-92
2023/08/31 21:23:35;;;;;;;0.93;0.60;;;;;;;;;;6243093;23;20012;-90
2023/08/31 21:26:05;;;;;;;2.80;0.80;;;;;;;;;;6240905;23;20067;-91
2023/08/31 21:28:31;;;;;;;1.52;0.68;;;;;;;;;;6241187;23;20069;-92
2023/08/31 21:30:58;;;;;;;2.63;0.90;;;;;;;;;;6242922;23;20023;-92
2023/08/31 21:33:24;;;;;;;1.83;0.70;;;;;;;;;;6243968;23;20068;-90
2023/08/31 21:35:50;;;;;;;2.05;1.00;;;;;;;;;;6241518;23;20016;-91
2023/08/31 21:38:16;;;;;;;1.35;1.08;;;;;;;;;;6242369;23;20023;-91
2023/08/31 21:40:49;;;;;;;1.38;0.80;;;;;;;;;;6242716;23;20039;-92
2023/08/31 21:43:15;;;;;;;0.80;0.65;;;;;;;;;;6240376;23;20023;-91
2023/08/31 21:45:41;;;;;;;1.48;0.90;;;;;;;;;;6243442;23;20015;-91
2023/08/31 21:48:07;;;;;;;0.88;0.80;;;;;;;;;;6242642;23;20361;-91
2023/08/31 21:50:34;;;;;;;1.10;0.65;;;;;;;;;;6240736;23;20123;-91
2023/08/31 21:53:00;;;;;;;1.42;0.93;;;;;;;;;;6242926;23;20020;-90
2023/08/31 21:55:27;;;;;;;1.00;0.68;;;;;;;;;;6242659;23;20008;-91
2023/08/31 21:57:53;;;;;;;2.05;0.80;;;;;;;;;;6242733;23;20041;-92
2023/08/31 22:00:19;;;;;;;0.93;0.73;;;;;;;;;;6215952;23;20016;-91
2023/08/31 22:02:46;;;;;;;1.25;0.50;;;;;;;;;;6243251;23;20380;-91
2023/08/31 22:05:17;;;;;;;1.90;1.23;;;;;;;;;;6242802;23;20012;-91
2023/08/31 22:07:43;;;;;;;0.93;0.70;;;;;;;;;;6241396;23;20016;-91
2023/08/31 22:10:11;;;;;;;1.00;0.90;;;;;;;;;;6239901;23;20103;-91
2023/08/31 22:12:37;;;;;;;2.88;0.88;;;;;;;;;;6241385;23;20020;-91
2023/08/31 22:15:04;;;;;;;2.15;1.20;;;;;;;;;;6240825;23;20077;-91
2023/08/31 22:17:31;;;;;;;1.80;1.10;;;;;;;;;;6242572;23;20436;-91
2023/08/31 22:19:57;;;;;;;1.88;1.20;;;;;;;;;;6243631;23;20012;-92
2023/08/31 22:22:23;;;;;;;1.75;1.13;;;;;;;;;;6245094;23;20384;-91
2023/08/31 22:24:49;;;;;;;1.88;1.10;;;;;;;;;;6244829;23;20012;-92
2023/08/31 22:27:16;;;;;;;2.70;1.20;;;;;;;;;;6243374;23;20019;-91
2023/08/31 22:29:42;;;;;;;2.83;1.27;;;;;;;;;;6245217;23;20468;-91
2023/08/31 22:32:09;;;;;;;2.70;1.95;;;;;;;;;;6245004;23;20023;-91
2023/08/31 22:34:35;;;;;;;1.80;1.30;;;;;;;;;;6245437;23;20023;-91
2023/08/31 22:37:03;;;;;;;3.05;1.13;;;;;;;;;;6244890;23;20047;-91
2023/08/31 22:39:29;;;;;;;2.65;1.42;;;;;;;;;;6245356;23;20016;-90
2023/08/31 22:41:55;;;;;;;1.60;1.10;;;;;;;;;;6244811;23;20019;-90
2023/08/31 22:44:21;;;;;;;2.40;1.15;;;;;;;;;;6245526;23;20016;-91
2023/08/31 22:46:47;;;;;;;1.77;1.35;;;;;;;;;;6246001;23;20461;-92
2023/08/31 22:49:15;;;;;;;3.28;1.40;;;;;;;;;;6243744;23;20020;-91
2023/08/31 22:51:41;;;;;;;1.33;1.10;;;;;;;;;;6221403;23;20043;-91
2023/08/31 22:54:07;;;;;;;1.77;1.35;;;;;;;;;;6249300;23;20012;-91
2023/08/31 22:56:33;;;;;;;2.47;1.30;;;;;;;;;;6249746;23;20025;-90
2023/08/31 22:58:59;;;;;;;1.38;1.20;;;;;;;;;;6255166;23;20022;-92
2023/08/31 23:01:25;;;;;;;2.28;1.40;;;;;;;;;;6268988;23;20020;-91
2023/08/31 23:03:51;;;;;;;2.83;1.60;;;;;;;;;;6265621;23;20023;-91
2023/08/31 23:06:18;;;;;;;1.52;1.30;;;;;;;;;;6258297;23;20030;-91
2023/08/31 23:08:44;;;;;;;2.72;1.58;;;;;;;;;;6246387;23;20376;-91
2023/08/31 23:11:10;;;;;;;3.22;1.20;;;;;;;;;;6241591;23;20082;-90
2023/08/31 23:13:36;;;;;;;2.70;1.20;;;;;;;;;;6242148;23;20012;-91
2023/08/31 23:16:06;;;;;;;1.63;1.10;;;;;;;;;;6242242;23;20016;-91
2023/08/31 23:18:32;;;;;;;1.98;1.30;;;;;;;;;;6242603;23;20315;-91
2023/08/31 23:21:05;;;;;;;1.90;1.08;;;;;;;;;;6242718;23;20020;-90